Catàleg de serveis del Meteocat

Dades de l'estació automàtica Puig Sesolles (1.668 m)

?
?
Resum diari 23:00 TU
Dades diàries de l'estació meteorològica
Temperatura mitjana -4.0 °C
Temperatura màxima 0.0 °C 12:12 TU
Temperatura mínima -8.6 °C 23:03 TU
Humitat relativa mitjana 84%
Precipitació acumulada 1.3 mm
Gruix de neu màxim 6 cm
Ratxa màxima del vent (10 m) 82.4 km/h - 288º 14:57 TU
Irradiació solar global 6.1 MJ/m2

El tram horari està expressat en Temps Universal (TU). Cal sumar una hora en horari d'hivern i dues en horari d'estiu per passar a l'hora oficial.

Puig Sesolles (1.668 m)

Metadades estació meteorol´gica
Municipi Fogars de Montclús
Comarca Vallès Oriental
Altitud 1668 m
Data alta 22.09.2010
Estat actual Operativa
Dades de període
Període
TU
TM
°C
TX
°C
TN
°C
HRM
%
PPT
mm
GN
cm
VVM (10 m)
km/h
DVM (10 m)
graus
VVX (10 m)
km/h
RS
W/m2
00:00 - 00:30 -4.2 -3.7 -4.6 46 0.0 4 18.4 263 24.8 0
00:30 - 01:00 -4.7 -4.5 -5.0 50 0.0 3 25.2 264 29.2 0
01:00 - 01:30 -4.9 -4.7 -5.1 57 0.0 3 31.3 257 37.4 0
01:30 - 02:00 -4.5 -4.1 -5.0 64 0.0 3 35.3 264 41.4 0
02:00 - 02:30 -4.2 -4.1 -4.3 66 0.0 2 35.6 269 42.1 0
02:30 - 03:00 -3.9 -3.9 -4.1 66 0.0 3 31.0 270 39.2 0
03:00 - 03:30 -4.0 -3.9 -4.2 66 0.0 3 24.8 267 31.0 0
03:30 - 04:00 -4.2 -3.6 -4.3 67 0.0 4 28.1 266 43.9 0
04:00 - 04:30 -3.7 -3.3 -4.1 65 0.0 5 31.0 268 41.8 0
04:30 - 05:00 -3.2 -3.0 -3.4 62 0.0 4 34.2 273 43.2 0
05:00 - 05:30 -3.1 -2.8 -3.2 63 0.0 4 39.2 273 50.0 0
05:30 - 06:00 -2.7 -2.4 -3.0 63 0.0 5 34.2 277 50.0 0
06:00 - 06:30 -2.6 -2.4 -2.7 63 0.0 3 24.1 279 35.3 4
06:30 - 07:00 -2.7 -2.5 -2.8 67 0.0 4 24.5 278 32.0 4
07:00 - 07:30 -2.9 -2.7 -3.0 69 0.0 4 26.3 269 36.7 7
07:30 - 08:00 -3.2 -3.0 -3.4 70 0.0 3 34.9 267 48.2 12
08:00 - 08:30 -3.5 -2.9 -4.1 85 0.0 4 32.8 285 45.7 24
08:30 - 09:00 -3.6 -3.3 -4.0 100 0.0 3 25.9 289 34.2 42
09:00 - 09:30 -3.2 -3.2 -3.3 100 0.1 2 15.5 299 25.2 73
09:30 - 10:00 -2.9 -2.7 -3.2 100 0.0 2 8.3 347 14.8 137
10:00 - 10:30 -2.4 -2.1 -2.7 100 0.0 2 11.5 25 20.9 265
10:30 - 11:00 -1.6 -1.3 -2.0 97 0.0 3 7.2 6 13.3 448
11:00 - 11:30 -1.2 -0.1 -1.9 95 0.0 2 5.0 333 18.7 408
11:30 - 12:00 -0.4 -0.1 -0.7 86 0.0 2 16.9 297 34.6 493
12:00 - 12:30 -0.3 0.0 -0.6 74 0.0 (s/d) 19.1 301 34.6 429
12:30 - 13:00 -0.6 -0.2 -1.0 85 0.0 1 21.2 271 33.1 322
13:00 - 13:30 -0.8 -0.5 -1.0 78 0.0 3 38.2 286 64.4 170
13:30 - 14:00 -1.1 -0.9 -1.3 75 0.0 2 49.0 289 68.8 112
14:00 - 14:30 -1.5 -0.9 -1.9 81 0.0 3 55.4 283 78.8 114
14:30 - 15:00 -2.4 -1.8 -2.5 99 0.0 2 56.9 288 82.4 105
15:00 - 15:30 -2.6 -2.3 -3.0 100 0.0 3 57.2 285 81.0 92
15:30 - 16:00 -2.9 -2.6 -3.1 97 0.0 4 47.2 290 63.0 54
16:00 - 16:30 -3.5 -3.0 -3.9 100 0.1 6 35.6 313 65.2 13
16:30 - 17:00 -4.7 -3.9 -5.6 100 1.0 5 16.9 353 50.0 8
17:00 - 17:30 -5.6 -5.4 -5.8 99 0.0 5 27.7 335 65.9 5
17:30 - 18:00 -6.1 -5.8 -6.2 99 0.1 5 23.4 353 61.2 5
18:00 - 18:30 -6.0 -5.5 -6.3 100 0.0 4 22.3 325 73.4 4
18:30 - 19:00 -5.8 -5.6 -6.1 90 0.0 5 26.6 354 67.3 5
19:00 - 19:30 -6.5 -6.2 -6.8 99 0.0 6 18.0 339 51.5 5
19:30 - 20:00 -6.8 -6.8 -6.8 100 0.0 6 17.3 351 54.7 5
20:00 - 20:30 -6.8 -6.7 -7.0 100 0.0 6 15.5 1 53.3 5
20:30 - 21:00 -7.2 -6.9 -7.3 100 0.0 6 13.7 40 49.3 4
21:00 - 21:30 -7.2 -7.1 -7.3 100 0.0 5 16.6 32 43.9 5
21:30 - 22:00 -7.2 -7.0 -7.4 100 0.0 2 19.4 23 48.2 5
22:00 - 22:30 -7.7 -7.4 -8.1 100 0.0 6 22.0 15 56.2 5
22:30 - 23:00 -8.4 -8.1 -8.6 100 0.0 5 17.3 53 57.6 3
23:00 - 23:30 -8.4 -8.0 -8.6 96 0.0 5 20.5 357 70.2 2

Les dades en taronja només han passat un control de qualitat automàtic. Resta pendent la seva validació definitiva.